createdAt,value
2023-04-16T00:00:37.669Z,8.58
2023-04-16T00:03:08.046Z,8.67
2023-04-16T00:05:35.877Z,8.56
2023-04-16T00:08:03.283Z,8.69
2023-04-16T00:10:32.558Z,8.61
2023-04-16T00:12:59.147Z,8.56
2023-04-16T00:15:25.910Z,8.44
2023-04-16T00:17:52.827Z,8.46
2023-04-16T00:20:20.473Z,8.50
2023-04-16T00:22:47.131Z,8.54
2023-04-16T00:25:14.141Z,8.52
2023-04-16T00:27:40.749Z,8.45
2023-04-16T00:30:07.894Z,8.42
2023-04-16T00:32:34.652Z,8.42
2023-04-16T00:35:01.310Z,8.33
2023-04-16T00:37:27.997Z,8.32
2023-04-16T00:39:54.680Z,8.29
2023-04-16T00:42:21.287Z,8.23
2023-04-16T00:44:47.921Z,8.23
2023-04-16T00:47:14.629Z,8.25
2023-04-16T00:49:41.426Z,8.23
2023-04-16T00:52:08.058Z,8.06
2023-04-16T00:54:34.819Z,8.17
2023-04-16T00:57:02.286Z,8.04
2023-04-16T00:59:29.569Z,8.10
2023-04-16T01:01:56.299Z,8.10
2023-04-16T01:04:23.214Z,8.32
2023-04-16T01:06:49.938Z,8.26
2023-04-16T01:09:16.954Z,8.09
2023-04-16T01:11:43.601Z,8.05
2023-04-16T01:14:11.160Z,7.99
2023-04-16T01:16:38.446Z,7.94
2023-04-16T01:19:05.306Z,7.99
2023-04-16T01:21:32.428Z,8.09
2023-04-16T01:24:03.658Z,8.10
2023-04-16T01:26:31.102Z,8.06
2023-04-16T01:28:57.939Z,8.06
2023-04-16T01:31:24.808Z,8.02
2023-04-16T01:33:51.513Z,8.03
2023-04-16T01:36:18.288Z,7.94
2023-04-16T01:38:44.954Z,7.97
2023-04-16T01:41:11.743Z,7.94
2023-04-16T01:43:40.169Z,7.94
2023-04-16T01:46:27.525Z,7.88
2023-04-16T01:48:55.014Z,7.98
2023-04-16T01:51:22.144Z,7.93
2023-04-16T01:53:49.871Z,7.93
2023-04-16T01:56:16.956Z,7.90
2023-04-16T01:58:43.680Z,7.90
2023-04-16T02:01:13.625Z,7.89
2023-04-16T02:03:43.130Z,7.94
2023-04-16T02:06:09.898Z,7.93
2023-04-16T02:08:36.570Z,8.04
2023-04-16T02:11:03.259Z,7.98
2023-04-16T02:13:29.913Z,8.03
2023-04-16T02:15:56.555Z,7.92
2023-04-16T02:18:23.216Z,7.90
2023-04-16T02:20:49.914Z,7.86
2023-04-16T02:23:17.447Z,7.85
2023-04-16T02:25:47.750Z,7.85
2023-04-16T02:28:16.834Z,7.84
2023-04-16T02:30:45.451Z,7.93
2023-04-16T02:33:12.468Z,7.88
2023-04-16T02:35:40.132Z,7.87
2023-04-16T02:38:07.609Z,7.92
2023-04-16T02:40:35.036Z,7.88
2023-04-16T02:43:02.012Z,7.93
2023-04-16T02:45:28.788Z,7.79
2023-04-16T02:47:55.455Z,7.78
2023-04-16T02:50:22.186Z,7.77
2023-04-16T02:52:48.937Z,7.80
2023-04-16T02:55:16.102Z,7.89
2023-04-16T02:57:42.789Z,7.80
2023-04-16T03:00:10.111Z,7.81
2023-04-16T03:02:36.871Z,7.84
2023-04-16T03:05:04.189Z,7.85
2023-04-16T03:07:30.942Z,7.79
2023-04-16T03:09:57.574Z,7.92
2023-04-16T03:12:24.256Z,7.89
2023-04-16T03:14:52.676Z,7.80
2023-04-16T03:17:19.454Z,7.84
2023-04-16T03:19:46.232Z,7.90
2023-04-16T03:22:12.976Z,7.81
2023-04-16T03:24:39.719Z,7.80
2023-04-16T03:27:06.384Z,7.73
2023-04-16T03:29:33.049Z,7.78
2023-04-16T03:31:59.656Z,7.79
2023-04-16T03:34:26.655Z,7.75
2023-04-16T03:36:53.229Z,7.83
2023-04-16T03:39:19.839Z,7.92
2023-04-16T03:41:47.495Z,7.79
2023-04-16T03:44:14.102Z,7.78
2023-04-16T03:46:40.966Z,7.86
2023-04-16T03:49:08.235Z,7.81
2023-04-16T03:51:35.160Z,7.77
2023-04-16T03:54:01.895Z,7.80
2023-04-16T03:56:28.523Z,7.76
2023-04-16T03:58:55.155Z,7.84
2023-04-16T04:01:21.763Z,7.84
2023-04-16T04:03:48.600Z,7.85
2023-04-16T04:06:15.362Z,7.76
2023-04-16T04:08:42.003Z,7.87
2023-04-16T04:11:08.631Z,7.80
2023-04-16T04:13:35.362Z,7.82
2023-04-16T04:16:02.132Z,7.83
2023-04-16T04:18:28.904Z,7.83
2023-04-16T04:20:55.544Z,7.82
2023-04-16T04:23:22.159Z,7.79
2023-04-16T04:25:49.149Z,7.88
2023-04-16T04:28:16.108Z,7.83
2023-04-16T04:30:42.715Z,7.75
2023-04-16T04:33:09.426Z,7.82
2023-04-16T04:35:36.031Z,7.71
2023-04-16T04:38:03.160Z,7.75
2023-04-16T04:40:29.781Z,7.78
2023-04-16T04:42:56.591Z,7.80
2023-04-16T04:45:25.658Z,7.79
2023-04-16T04:47:53.008Z,7.81
2023-04-16T04:50:19.789Z,7.78
2023-04-16T04:52:46.397Z,7.79
2023-04-16T04:55:15.772Z,7.80
2023-04-16T04:57:42.708Z,7.80
2023-04-16T05:00:09.804Z,7.77
2023-04-16T05:02:36.662Z,7.74
2023-04-16T05:05:04.380Z,7.80
2023-04-16T05:07:33.736Z,7.78
2023-04-16T05:10:00.796Z,7.79
2023-04-16T05:12:27.459Z,7.77
2023-04-16T05:14:54.183Z,7.84
2023-04-16T05:17:20.966Z,7.99
2023-04-16T05:19:47.772Z,7.88
2023-04-16T05:22:14.462Z,7.82
2023-04-16T05:24:41.132Z,7.83
2023-04-16T05:27:07.827Z,7.95
2023-04-16T05:29:34.462Z,8.03
2023-04-16T05:32:01.954Z,8.00
2023-04-16T05:34:28.704Z,8.02
2023-04-16T05:36:55.402Z,7.89
2023-04-16T05:39:22.117Z,7.98
2023-04-16T05:41:48.877Z,8.03
2023-04-16T05:44:18.116Z,8.16
2023-04-16T05:46:44.906Z,8.13
2023-04-16T05:49:11.910Z,8.07
2023-04-16T05:51:38.772Z,8.16
2023-04-16T05:54:05.683Z,8.24
2023-04-16T05:56:32.339Z,8.18
2023-04-16T05:58:59.040Z,8.11
2023-04-16T06:01:25.895Z,8.19
2023-04-16T06:03:52.758Z,8.20
2023-04-16T06:06:19.534Z,8.21
2023-04-16T06:08:46.415Z,8.15
2023-04-16T06:11:13.119Z,8.15
2023-04-16T06:13:39.915Z,8.08
2023-04-16T06:16:06.768Z,8.15
2023-04-16T06:18:33.438Z,8.30
2023-04-16T06:21:00.349Z,8.22
2023-04-16T06:23:27.145Z,8.15
2023-04-16T06:25:54.365Z,8.15
2023-04-16T06:28:21.118Z,8.23
2023-04-16T06:30:48.695Z,8.21
2023-04-16T06:33:15.427Z,8.14
2023-04-16T06:35:42.232Z,8.28
2023-04-16T06:38:08.949Z,8.15
2023-04-16T06:40:37.550Z,8.36
2023-04-16T06:43:04.244Z,8.34
2023-04-16T06:45:30.970Z,8.24
2023-04-16T06:47:59.107Z,8.29
2023-04-16T06:50:26.964Z,8.37
2023-04-16T06:52:55.572Z,8.32
2023-04-16T06:55:22.586Z,8.29
2023-04-16T06:57:49.323Z,8.12
2023-04-16T07:00:16.345Z,8.24
2023-04-16T07:02:43.240Z,8.20
2023-04-16T07:05:10.139Z,8.24
2023-04-16T07:07:37.038Z,8.28
2023-04-16T07:10:05.480Z,8.36
2023-04-16T07:12:33.157Z,8.37
2023-04-16T07:15:00.332Z,8.37
2023-04-16T07:17:27.302Z,8.23
2023-04-16T07:19:54.079Z,8.30
2023-04-16T07:22:21.103Z,8.42
2023-04-16T07:24:48.012Z,8.30
2023-04-16T07:27:14.924Z,8.34
2023-04-16T07:29:41.727Z,8.31
2023-04-16T07:32:08.769Z,8.39
2023-04-16T07:34:35.670Z,8.51
2023-04-16T07:37:02.452Z,8.56
2023-04-16T07:39:29.175Z,8.61
2023-04-16T07:41:56.089Z,8.69
2023-04-16T07:44:22.825Z,8.75
2023-04-16T07:46:49.694Z,8.70
2023-04-16T07:49:16.548Z,8.72
2023-04-16T07:51:43.560Z,8.55
2023-04-16T07:54:11.156Z,8.55
2023-04-16T07:56:37.918Z,8.65
2023-04-16T07:59:18.310Z,8.70
2023-04-16T08:01:48.531Z,8.76
2023-04-16T08:04:17.541Z,8.77
2023-04-16T08:06:44.393Z,8.67
2023-04-16T08:09:11.284Z,8.70
2023-04-16T08:11:38.324Z,8.72
2023-04-16T08:14:05.073Z,8.80
2023-04-16T08:16:31.853Z,8.84
2023-04-16T08:19:01.003Z,8.96
2023-04-16T08:21:28.284Z,8.94
2023-04-16T08:23:55.000Z,8.97
2023-04-16T08:26:21.764Z,9.01
2023-04-16T08:28:48.623Z,9.02
2023-04-16T08:31:15.376Z,9.03
2023-04-16T08:33:42.223Z,9.10
2023-04-16T08:36:09.232Z,9.20
2023-04-16T08:38:36.029Z,9.52
2023-04-16T08:41:03.679Z,9.50
2023-04-16T08:43:33.753Z,9.44
2023-04-16T08:46:01.268Z,9.40
2023-04-16T08:48:33.686Z,9.62
2023-04-16T08:51:02.420Z,9.61
2023-04-16T08:53:33.333Z,9.73
2023-04-16T08:56:04.863Z,9.80
2023-04-16T08:58:34.706Z,9.89
2023-04-16T09:01:03.919Z,9.92
2023-04-16T09:03:36.439Z,10.19
2023-04-16T09:06:04.570Z,10.28
2023-04-16T09:08:32.350Z,10.43
2023-04-16T09:10:59.664Z,10.37
2023-04-16T09:13:27.061Z,10.41
2023-04-16T09:15:54.787Z,10.37
2023-04-16T09:18:21.713Z,10.31
2023-04-16T09:20:49.781Z,10.38
2023-04-16T09:23:16.645Z,10.28
2023-04-16T09:25:45.309Z,10.11
2023-04-16T09:28:13.858Z,10.10
2023-04-16T09:30:41.146Z,10.25
2023-04-16T09:33:17.856Z,10.25
2023-04-16T09:35:46.697Z,10.19
2023-04-16T09:38:13.544Z,9.98
2023-04-16T09:40:40.496Z,10.08
2023-04-16T09:43:18.044Z,10.30
2023-04-16T09:45:52.367Z,10.31
2023-04-16T09:48:32.413Z,10.37
2023-04-16T09:51:00.542Z,10.38
2023-04-16T09:53:29.066Z,10.31
2023-04-16T09:56:00.772Z,10.33
2023-04-16T09:58:29.796Z,10.18
2023-04-16T10:01:03.753Z,10.18
2023-04-16T10:03:32.138Z,10.22
2023-04-16T10:06:14.734Z,10.43
2023-04-16T10:08:58.524Z,10.49
2023-04-16T10:11:25.931Z,10.38
2023-04-16T10:13:52.754Z,10.26
2023-04-16T10:16:19.644Z,10.20
2023-04-16T10:18:47.284Z,10.13
2023-04-16T10:21:16.756Z,10.01
2023-04-16T10:23:44.018Z,10.09
2023-04-16T10:26:10.927Z,10.05
2023-04-16T10:28:37.682Z,10.22
2023-04-16T10:31:07.463Z,10.04
2023-04-16T10:33:40.822Z,10.05
2023-04-16T10:36:08.099Z,10.19
2023-04-16T10:38:35.453Z,10.03
2023-04-16T10:41:03.635Z,9.99
2023-04-16T10:43:31.715Z,10.18
2023-04-16T10:46:18.005Z,10.08
2023-04-16T10:51:34.922Z,9.96
2023-04-16T10:54:20.086Z,10.05
2023-04-16T10:56:47.430Z,9.97
2023-04-16T10:59:18.424Z,9.95
2023-04-16T11:02:00.183Z,10.05
2023-04-16T11:04:29.974Z,10.07
2023-04-16T11:07:06.201Z,10.00
2023-04-16T11:09:53.673Z,10.04
2023-04-16T11:12:44.957Z,10.18
2023-04-16T11:15:16.200Z,10.22
2023-04-16T11:17:43.683Z,10.17
2023-04-16T11:20:19.097Z,10.36
2023-04-16T11:22:48.135Z,10.52
2023-04-16T11:25:20.850Z,10.52
2023-04-16T11:27:47.634Z,10.68
2023-04-16T11:30:14.520Z,10.76
2023-04-16T11:32:41.506Z,11.01
2023-04-16T11:35:16.675Z,11.12
2023-04-16T11:37:44.005Z,11.24
2023-04-16T11:40:11.786Z,11.24
2023-04-16T11:42:44.773Z,11.41
2023-04-16T11:45:12.421Z,11.37
2023-04-16T11:47:52.799Z,11.35
2023-04-16T11:50:29.800Z,11.17
2023-04-16T11:53:03.957Z,11.31
2023-04-16T11:55:31.163Z,10.98
2023-04-16T11:57:57.949Z,11.22
2023-04-16T12:00:25.082Z,11.07
2023-04-16T12:02:58.971Z,10.98
2023-04-16T12:05:38.902Z,10.89
2023-04-16T12:08:10.611Z,10.99
2023-04-16T12:10:58.389Z,11.04
2023-04-16T12:13:25.067Z,10.99
2023-04-16T12:15:54.006Z,10.84
2023-04-16T12:18:23.040Z,10.89
2023-04-16T12:20:53.424Z,10.76
2023-04-16T12:23:23.577Z,10.88
2023-04-16T12:25:52.083Z,10.92
2023-04-16T12:28:38.337Z,10.73
2023-04-16T12:31:08.576Z,10.82
2023-04-16T12:33:35.562Z,10.59
2023-04-16T12:36:17.405Z,10.67
2023-04-16T12:38:44.201Z,10.56
2023-04-16T12:41:10.914Z,10.64
2023-04-16T12:43:37.650Z,10.71
2023-04-16T12:46:04.905Z,10.79
2023-04-16T12:48:32.661Z,10.87
2023-04-16T12:50:59.427Z,10.70
2023-04-16T12:53:26.209Z,10.77
2023-04-16T12:55:53.212Z,10.72
2023-04-16T12:58:19.920Z,10.56
2023-04-16T13:00:46.627Z,10.65
2023-04-16T13:03:13.594Z,10.66
2023-04-16T13:05:40.634Z,10.62
2023-04-16T13:08:07.358Z,10.60
2023-04-16T13:10:35.162Z,10.70
2023-04-16T13:13:01.855Z,10.71
2023-04-16T13:15:28.964Z,11.06
2023-04-16T13:17:55.867Z,11.20
2023-04-16T13:20:24.401Z,11.09
2023-04-16T13:22:51.500Z,11.06
2023-04-16T13:25:18.223Z,11.18
2023-04-16T13:27:44.942Z,11.08
2023-04-16T13:30:12.026Z,11.20
2023-04-16T13:32:38.771Z,11.21
2023-04-16T13:35:06.146Z,10.99
2023-04-16T13:37:33.173Z,10.86
2023-04-16T13:39:59.926Z,10.91
2023-04-16T13:42:26.874Z,11.01
2023-04-16T13:44:55.069Z,10.89
2023-04-16T13:47:22.127Z,10.84
2023-04-16T13:49:49.027Z,10.65
2023-04-16T13:52:15.666Z,10.75
2023-04-16T13:54:42.829Z,11.00
2023-04-16T13:57:09.733Z,10.98
2023-04-16T13:59:36.454Z,10.99
2023-04-16T14:02:03.653Z,10.95
2023-04-16T14:04:30.570Z,10.83
2023-04-16T14:06:57.395Z,10.98
2023-04-16T14:09:24.508Z,10.87
2023-04-16T14:11:52.498Z,10.89
2023-04-16T14:14:21.612Z,10.81
2023-04-16T14:16:48.348Z,10.81
2023-04-16T14:19:15.198Z,10.76
2023-04-16T14:21:41.834Z,10.58
2023-04-16T14:24:09.248Z,10.77
2023-04-16T14:26:35.987Z,10.81
2023-04-16T14:29:02.643Z,10.74
2023-04-16T14:31:29.282Z,10.51
2023-04-16T14:33:56.071Z,10.54
2023-04-16T14:36:22.732Z,10.40
2023-04-16T14:38:49.434Z,10.37
2023-04-16T14:41:16.159Z,10.45
2023-04-16T14:43:44.438Z,10.26
2023-04-16T14:46:11.108Z,10.28
2023-04-16T14:48:38.989Z,10.22
2023-04-16T14:51:07.240Z,10.22
2023-04-16T14:53:34.454Z,10.39
2023-04-16T14:56:01.705Z,10.35
2023-04-16T14:58:28.546Z,10.26
2023-04-16T15:00:55.586Z,10.33
2023-04-16T15:03:22.593Z,10.39
2023-04-16T15:05:55.462Z,10.24
2023-04-16T15:08:23.241Z,10.18
2023-04-16T15:10:51.185Z,10.23
2023-04-16T15:13:18.202Z,10.22
2023-04-16T15:15:45.051Z,10.28
2023-04-16T15:18:11.772Z,10.05
2023-04-16T15:20:38.685Z,10.16
2023-04-16T15:23:05.378Z,10.22
2023-04-16T15:25:32.532Z,10.22
2023-04-16T15:27:59.580Z,10.06
2023-04-16T15:30:26.505Z,10.06
2023-04-16T15:32:55.053Z,10.09
2023-04-16T15:35:22.038Z,10.08
2023-04-16T15:37:48.947Z,10.03
2023-04-16T15:40:18.730Z,9.91
2023-04-16T15:42:45.662Z,9.95
2023-04-16T15:45:12.345Z,9.92
2023-04-16T15:47:41.489Z,9.70
2023-04-16T15:50:08.778Z,9.70
2023-04-16T15:52:36.365Z,9.81
2023-04-16T15:55:04.354Z,9.77
2023-04-16T15:57:31.414Z,9.77
2023-04-16T16:00:05.786Z,9.82
2023-04-16T16:02:33.812Z,9.88
2023-04-16T16:05:00.975Z,9.79
2023-04-16T16:07:27.640Z,9.90
2023-04-16T16:09:54.292Z,9.80
2023-04-16T16:12:20.920Z,9.81
2023-04-16T16:14:47.784Z,9.89
2023-04-16T16:17:14.433Z,9.87
2023-04-16T16:19:41.197Z,9.89
2023-04-16T16:22:09.665Z,9.88
2023-04-16T16:24:36.279Z,9.66
2023-04-16T16:27:02.993Z,9.63
2023-04-16T16:29:29.674Z,9.57
2023-04-16T16:31:56.497Z,9.56
2023-04-16T16:34:23.188Z,9.43
2023-04-16T16:36:49.935Z,9.58
2023-04-16T16:39:16.558Z,9.57
2023-04-16T16:41:43.231Z,9.36
2023-04-16T16:44:10.356Z,9.37
2023-04-16T16:46:37.294Z,9.36
2023-04-16T16:49:06.039Z,9.25
2023-04-16T16:51:34.003Z,9.30
2023-04-16T16:54:00.732Z,9.21
2023-04-16T16:56:28.004Z,9.16
2023-04-16T16:58:54.727Z,9.22
2023-04-16T17:01:21.373Z,9.11
2023-04-16T17:03:48.115Z,9.04
2023-04-16T17:06:14.941Z,9.02
2023-04-16T17:08:41.818Z,8.86
2023-04-16T17:11:08.619Z,9.00
2023-04-16T17:13:35.558Z,9.02
2023-04-16T17:16:02.428Z,9.02
2023-04-16T17:18:29.326Z,8.95
2023-04-16T17:20:56.153Z,8.88
2023-04-16T17:23:22.902Z,8.81
2023-04-16T17:25:49.835Z,8.74
2023-04-16T17:28:16.504Z,8.78
2023-04-16T17:30:43.274Z,8.69
2023-04-16T17:33:10.052Z,8.56
2023-04-16T17:35:36.692Z,8.63
2023-04-16T17:38:03.298Z,8.71
2023-04-16T17:40:29.899Z,8.58
2023-04-16T17:42:56.554Z,8.62
2023-04-16T17:45:23.312Z,8.63
2023-04-16T17:47:50.011Z,8.58
2023-04-16T17:50:16.715Z,8.60
2023-04-16T17:52:43.774Z,8.66
2023-04-16T17:55:11.157Z,8.61
2023-04-16T17:57:37.848Z,8.54
2023-04-16T18:00:14.426Z,8.51
2023-04-16T18:02:41.485Z,8.28
2023-04-16T18:05:08.920Z,8.29
2023-04-16T18:07:36.553Z,8.40
2023-04-16T18:10:03.320Z,8.40
2023-04-16T18:12:29.995Z,8.37
2023-04-16T18:14:56.670Z,8.37
2023-04-16T18:17:23.504Z,8.37
2023-04-16T18:19:50.536Z,8.39
2023-04-16T18:22:17.253Z,8.51
2023-04-16T18:24:43.872Z,8.42
2023-04-16T18:27:10.567Z,8.41
2023-04-16T18:29:39.687Z,8.31
2023-04-16T18:32:09.907Z,8.34
2023-04-16T18:34:38.555Z,8.32
2023-04-16T18:37:05.344Z,8.33
2023-04-16T18:39:35.890Z,8.25
2023-04-16T18:42:03.823Z,8.33
2023-04-16T18:44:30.881Z,8.19
2023-04-16T18:46:57.770Z,8.26
2023-04-16T18:49:24.943Z,8.13
2023-04-16T18:51:51.771Z,7.94
2023-04-16T18:54:19.911Z,8.00
2023-04-16T18:56:46.557Z,8.01
2023-04-16T18:59:13.652Z,8.07
2023-04-16T19:01:40.459Z,7.87
2023-04-16T19:04:07.132Z,7.92
2023-04-16T19:06:33.815Z,7.94
2023-04-16T19:09:00.526Z,8.01
2023-04-16T19:11:27.222Z,8.03
2023-04-16T19:13:54.003Z,7.92
2023-04-16T19:16:20.949Z,7.98
2023-04-16T19:18:47.605Z,7.94
2023-04-16T19:21:14.466Z,7.93
2023-04-16T19:23:41.208Z,7.86
2023-04-16T19:26:07.822Z,7.87
2023-04-16T19:28:34.536Z,7.95
2023-04-16T19:31:01.350Z,7.83
2023-04-16T19:33:28.172Z,7.91
2023-04-16T19:35:54.889Z,7.78
2023-04-16T19:38:21.487Z,7.83
2023-04-16T19:40:48.891Z,7.76
2023-04-16T19:43:15.747Z,7.77
2023-04-16T19:45:52.542Z,7.76
2023-04-16T19:48:19.970Z,7.74
2023-04-16T19:50:46.770Z,7.78
2023-04-16T19:53:13.378Z,7.68
2023-04-16T19:55:41.261Z,7.72
2023-04-16T19:58:09.459Z,7.70
2023-04-16T20:00:37.291Z,7.67
2023-04-16T20:03:04.864Z,7.65
2023-04-16T20:05:31.615Z,7.69
2023-04-16T20:07:58.278Z,7.67
2023-04-16T20:10:26.467Z,7.74
2023-04-16T20:12:53.351Z,7.59
2023-04-16T20:15:20.078Z,7.60
2023-04-16T20:17:46.774Z,7.61
2023-04-16T20:20:15.763Z,7.52
2023-04-16T20:22:43.382Z,7.52
2023-04-16T20:25:10.148Z,7.62
2023-04-16T20:27:36.832Z,7.54
2023-04-16T20:30:05.507Z,7.55
2023-04-16T20:32:32.389Z,7.54
2023-04-16T20:34:59.731Z,7.54
2023-04-16T20:37:26.322Z,7.36
2023-04-16T20:39:54.157Z,7.21
2023-04-16T20:42:22.733Z,7.27
2023-04-16T20:44:50.601Z,7.39
2023-04-16T20:47:17.373Z,7.38
2023-04-16T20:49:46.992Z,7.47
2023-04-16T20:52:14.276Z,7.47
2023-04-16T20:54:40.945Z,7.29
2023-04-16T20:57:07.648Z,7.33
2023-04-16T20:59:34.387Z,7.30
2023-04-16T21:02:01.054Z,7.34
2023-04-16T21:04:27.871Z,7.29
2023-04-16T21:06:55.038Z,7.18
2023-04-16T21:09:21.849Z,7.19
2023-04-16T21:11:48.618Z,7.24
2023-04-16T21:14:15.508Z,7.25
2023-04-16T21:16:42.169Z,7.03
2023-04-16T21:19:09.089Z,7.14
2023-04-16T21:21:36.549Z,7.04
2023-04-16T21:24:03.316Z,6.97
2023-04-16T21:26:29.951Z,6.91
2023-04-16T21:28:56.618Z,6.85
2023-04-16T21:31:23.410Z,6.87
2023-04-16T21:33:50.130Z,6.95
2023-04-16T21:36:19.469Z,6.86
2023-04-16T21:38:46.102Z,6.93
2023-04-16T21:41:15.464Z,6.97
2023-04-16T21:43:42.083Z,6.90
2023-04-16T21:46:08.739Z,6.96
2023-04-16T21:48:35.527Z,6.91
2023-04-16T21:51:06.585Z,6.93
2023-04-16T21:53:34.017Z,6.89
2023-04-16T21:56:00.728Z,6.86
2023-04-16T21:58:27.344Z,6.83
2023-04-16T22:00:54.247Z,6.86
2023-04-16T22:03:28.155Z,6.90
2023-04-16T22:06:02.564Z,6.82
2023-04-16T22:08:29.241Z,6.76
2023-04-16T22:10:59.945Z,6.73
2023-04-16T22:13:27.873Z,6.76
2023-04-16T22:15:55.186Z,6.67
2023-04-16T22:18:24.331Z,6.68
2023-04-16T22:20:55.002Z,6.65
2023-04-16T22:23:22.986Z,6.69
2023-04-16T22:25:49.620Z,6.66
2023-04-16T22:28:16.288Z,6.62
2023-04-16T22:30:42.941Z,6.48
2023-04-16T22:33:09.580Z,6.44
2023-04-16T22:35:36.250Z,6.38
2023-04-16T22:38:02.863Z,6.52
2023-04-16T22:40:32.516Z,6.56
2023-04-16T22:42:59.174Z,6.54
2023-04-16T22:45:26.137Z,6.38
2023-04-16T22:47:52.905Z,6.36
2023-04-16T22:50:19.708Z,6.31
2023-04-16T22:52:46.349Z,6.33
2023-04-16T22:55:13.060Z,6.33
2023-04-16T22:57:39.816Z,6.42
2023-04-16T23:00:09.864Z,6.35
2023-04-16T23:02:39.780Z,6.27
2023-04-16T23:05:06.890Z,6.29
2023-04-16T23:07:34.109Z,6.30
2023-04-16T23:10:00.763Z,6.33
2023-04-16T23:12:27.368Z,6.31
2023-04-16T23:14:54.207Z,6.17
2023-04-16T23:17:21.109Z,6.20
2023-04-16T23:19:47.766Z,6.16
2023-04-16T23:22:14.370Z,6.17
2023-04-16T23:24:41.380Z,6.30
2023-04-16T23:27:08.283Z,6.19
2023-04-16T23:29:35.086Z,6.29
2023-04-16T23:32:03.109Z,6.13
2023-04-16T23:34:29.808Z,6.16
2023-04-16T23:36:56.465Z,6.09
2023-04-16T23:39:23.140Z,6.09
2023-04-16T23:41:49.833Z,6.12
2023-04-16T23:44:16.510Z,6.05
2023-04-16T23:46:43.207Z,6.05
2023-04-16T23:49:10.143Z,6.07
2023-04-16T23:51:37.043Z,6.07
2023-04-16T23:54:03.751Z,6.19
2023-04-16T23:56:30.360Z,5.98
2023-04-16T23:58:57.098Z,6.05
